sensor_id;sensor_type;location;lat;lon;timestamp;pressure;altitude;pressure_sealevel;temperature;humidity
60918;BME280;46792;38.854;-9.384;2022-12-16T00:00:17;98027.63;;;13.69;100.00
60918;BME280;46792;38.854;-9.384;2022-12-16T00:02:18;98033.88;;;13.69;100.00
60918;BME280;46792;38.854;-9.384;2022-12-16T00:04:19;98028.94;;;13.72;100.00
60918;BME280;46792;38.854;-9.384;2022-12-16T00:06:21;98027.16;;;13.76;100.00
60918;BME280;46792;38.854;-9.384;2022-12-16T00:08:21;98025.38;;;13.80;100.00
60918;BME280;46792;38.854;-9.384;2022-12-16T00:10:22;98011.34;;;13.78;100.00
60918;BME280;46792;38.854;-9.384;2022-12-16T00:12:23;98023.16;;;13.82;100.00
60918;BME280;46792;38.854;-9.384;2022-12-16T00:14:23;98030.03;;;13.79;100.00
60918;BME280;46792;38.854;-9.384;2022-12-16T00:16:26;98015.66;;;13.79;100.00
60918;BME280;46792;38.854;-9.384;2022-12-16T00:18:46;98032.22;;;13.95;100.00
60918;BME280;46792;38.854;-9.384;2022-12-16T00:20:50;98017.38;;;13.92;100.00
60918;BME280;46792;38.854;-9.384;2022-12-16T00:22:51;98018.50;;;13.82;100.00
60918;BME280;46792;38.854;-9.384;2022-12-16T00:24:51;98017.56;;;13.87;100.00
60918;BME280;46792;38.854;-9.384;2022-12-16T00:26:52;98018.69;;;13.86;100.00
60918;BME280;46792;38.854;-9.384;2022-12-16T00:28:53;98019.00;;;13.84;100.00
60918;BME280;46792;38.854;-9.384;2022-12-16T00:30:54;98017.72;;;13.82;100.00
60918;BME280;46792;38.854;-9.384;2022-12-16T00:32:55;98015.16;;;13.86;100.00
60918;BME280;46792;38.854;-9.384;2022-12-16T00:35:14;98014.53;;;13.80;100.00
60918;BME280;46792;38.854;-9.384;2022-12-16T00:37:15;98005.16;;;13.77;100.00
60918;BME280;46792;38.854;-9.384;2022-12-16T00:39:16;98002.41;;;13.86;100.00
60918;BME280;46792;38.854;-9.384;2022-12-16T00:41:16;98001.94;;;13.84;100.00
60918;BME280;46792;38.854;-9.384;2022-12-16T00:43:17;98010.53;;;13.95;100.00
60918;BME280;46792;38.854;-9.384;2022-12-16T00:45:19;98015.97;;;13.86;100.00
60918;BME280;46792;38.854;-9.384;2022-12-16T00:47:20;98020.09;;;13.92;100.00
60918;BME280;46792;38.854;-9.384;2022-12-16T00:49:20;98010.34;;;13.91;100.00
60918;BME280;46792;38.854;-9.384;2022-12-16T00:51:21;98004.28;;;13.94;100.00
60918;BME280;46792;38.854;-9.384;2022-12-16T00:53:23;98007.84;;;13.86;100.00
60918;BME280;46792;38.854;-9.384;2022-12-16T00:55:24;98011.16;;;13.92;100.00
60918;BME280;46792;38.854;-9.384;2022-12-16T00:57:25;98014.19;;;13.90;100.00
60918;BME280;46792;38.854;-9.384;2022-12-16T00:59:25;98011.19;;;13.83;100.00
60918;BME280;46792;38.854;-9.384;2022-12-16T01:01:26;98012.94;;;13.79;100.00
60918;BME280;46792;38.854;-9.384;2022-12-16T01:03:27;98014.22;;;13.73;100.00
60918;BME280;46792;38.854;-9.384;2022-12-16T01:05:27;98010.09;;;13.66;100.00
60918;BME280;46792;38.854;-9.384;2022-12-16T01:07:28;98008.03;;;13.63;100.00
60918;BME280;46792;38.854;-9.384;2022-12-16T01:09:28;98000.69;;;13.64;100.00
60918;BME280;46792;38.854;-9.384;2022-12-16T01:11:29;98010.75;;;13.63;100.00
60918;BME280;46792;38.854;-9.384;2022-12-16T01:13:30;98005.47;;;13.58;100.00
60918;BME280;46792;38.854;-9.384;2022-12-16T01:15:31;98006.94;;;13.56;100.00
60918;BME280;46792;38.854;-9.384;2022-12-16T01:17:32;97997.19;;;13.54;100.00
60918;BME280;46792;38.854;-9.384;2022-12-16T01:19:33;98005.31;;;13.63;100.00
60918;BME280;46792;38.854;-9.384;2022-12-16T01:21:33;98005.19;;;13.60;100.00
60918;BME280;46792;38.854;-9.384;2022-12-16T01:25:57;98006.25;;;13.85;100.00
60918;BME280;46792;38.854;-9.384;2022-12-16T01:28:03;98011.94;;;13.92;100.00
60918;BME280;46792;38.854;-9.384;2022-12-16T01:30:04;98009.72;;;13.94;100.00
60918;BME280;46792;38.854;-9.384;2022-12-16T01:32:07;98008.78;;;13.81;100.00
60918;BME280;46792;38.854;-9.384;2022-12-16T01:34:08;98002.41;;;13.86;100.00
60918;BME280;46792;38.854;-9.384;2022-12-16T01:36:09;98002.91;;;13.79;100.00
60918;BME280;46792;38.854;-9.384;2022-12-16T01:40:47;98005.47;;;13.67;100.00
60918;BME280;46792;38.854;-9.384;2022-12-16T01:42:48;97998.44;;;13.66;100.00
60918;BME280;46792;38.854;-9.384;2022-12-16T01:44:50;97996.41;;;13.54;100.00
60918;BME280;46792;38.854;-9.384;2022-12-16T01:50:00;97996.84;;;13.74;100.00
60918;BME280;46792;38.854;-9.384;2022-12-16T01:52:03;97991.88;;;13.76;100.00
60918;BME280;46792;38.854;-9.384;2022-12-16T01:54:16;97992.97;;;13.83;100.00
60918;BME280;46792;38.854;-9.384;2022-12-16T01:56:18;98008.13;;;13.93;100.00
60918;BME280;46792;38.854;-9.384;2022-12-16T01:58:41;97996.00;;;13.91;100.00
60918;BME280;46792;38.854;-9.384;2022-12-16T02:00:42;98000.13;;;13.97;100.00
60918;BME280;46792;38.854;-9.384;2022-12-16T02:02:44;98009.84;;;13.98;100.00
60918;BME280;46792;38.854;-9.384;2022-12-16T02:04:49;98001.88;;;14.02;100.00
60918;BME280;46792;38.854;-9.384;2022-12-16T02:07:27;98010.31;;;14.09;100.00
60918;BME280;46792;38.854;-9.384;2022-12-16T02:09:28;98007.94;;;13.98;100.00
60918;BME280;46792;38.854;-9.384;2022-12-16T02:20:50;98024.13;;;13.86;100.00
60918;BME280;46792;38.854;-9.384;2022-12-16T02:32:01;98033.88;;;13.61;100.00
60918;BME280;46792;38.854;-9.384;2022-12-16T02:34:27;98040.56;;;13.63;100.00
60918;BME280;46792;38.854;-9.384;2022-12-16T02:36:40;98040.44;;;13.60;100.00
60918;BME280;46792;38.854;-9.384;2022-12-16T02:39:13;98031.00;;;13.66;100.00
60918;BME280;46792;38.854;-9.384;2022-12-16T02:43:57;98037.72;;;13.60;100.00
60918;BME280;46792;38.854;-9.384;2022-12-16T02:45:58;98032.28;;;13.60;100.00
60918;BME280;46792;38.854;-9.384;2022-12-16T02:48:00;98035.63;;;13.65;100.00
60918;BME280;46792;38.854;-9.384;2022-12-16T02:50:33;98029.41;;;13.56;100.00
60918;BME280;46792;38.854;-9.384;2022-12-16T02:52:35;98021.75;;;13.58;100.00
60918;BME280;46792;38.854;-9.384;2022-12-16T02:54:35;98037.88;;;13.54;100.00
60918;BME280;46792;38.854;-9.384;2022-12-16T02:56:51;98031.19;;;13.52;100.00
60918;BME280;46792;38.854;-9.384;2022-12-16T03:01:35;98034.34;;;13.72;100.00
60918;BME280;46792;38.854;-9.384;2022-12-16T03:04:09;98044.88;;;13.73;100.00
60918;BME280;46792;38.854;-9.384;2022-12-16T03:06:19;98038.81;;;13.67;100.00
60918;BME280;46792;38.854;-9.384;2022-12-16T03:08:42;98049.81;;;13.80;100.00
60918;BME280;46792;38.854;-9.384;2022-12-16T03:10:54;98046.00;;;13.72;100.00
60918;BME280;46792;38.854;-9.384;2022-12-16T03:12:58;98045.34;;;13.75;100.00
60918;BME280;46792;38.854;-9.384;2022-12-16T03:15:00;98042.00;;;13.69;100.00
60918;BME280;46792;38.854;-9.384;2022-12-16T03:17:02;98054.59;;;13.74;100.00
60918;BME280;46792;38.854;-9.384;2022-12-16T03:19:06;98050.44;;;13.68;100.00
60918;BME280;46792;38.854;-9.384;2022-12-16T03:21:31;98057.81;;;13.59;100.00
60918;BME280;46792;38.854;-9.384;2022-12-16T03:23:56;98051.56;;;13.67;100.00
60918;BME280;46792;38.854;-9.384;2022-12-16T03:26:02;98047.75;;;13.59;100.00
60918;BME280;46792;38.854;-9.384;2022-12-16T03:28:42;98041.69;;;13.62;100.00
60918;BME280;46792;38.854;-9.384;2022-12-16T03:30:45;98037.09;;;13.54;100.00
60918;BME280;46792;38.854;-9.384;2022-12-16T03:33:11;98042.31;;;13.59;100.00
60918;BME280;46792;38.854;-9.384;2022-12-16T03:37:26;98058.09;;;13.75;100.00
60918;BME280;46792;38.854;-9.384;2022-12-16T03:39:32;98066.22;;;13.75;100.00
60918;BME280;46792;38.854;-9.384;2022-12-16T03:41:34;98057.94;;;13.71;100.00
60918;BME280;46792;38.854;-9.384;2022-12-16T03:43:36;98065.75;;;13.64;100.00
60918;BME280;46792;38.854;-9.384;2022-12-16T03:45:38;98068.03;;;13.62;100.00
60918;BME280;46792;38.854;-9.384;2022-12-16T03:47:40;98066.09;;;13.45;100.00
60918;BME280;46792;38.854;-9.384;2022-12-16T03:49:40;98062.44;;;13.41;100.00
60918;BME280;46792;38.854;-9.384;2022-12-16T03:51:41;98057.19;;;13.53;100.00
60918;BME280;46792;38.854;-9.384;2022-12-16T03:53:42;98065.47;;;13.57;100.00
60918;BME280;46792;38.854;-9.384;2022-12-16T03:56:01;98053.50;;;13.58;100.00
60918;BME280;46792;38.854;-9.384;2022-12-16T03:58:02;98052.69;;;13.57;100.00
60918;BME280;46792;38.854;-9.384;2022-12-16T04:02:41;98048.38;;;13.74;100.00
60918;BME280;46792;38.854;-9.384;2022-12-16T04:04:42;98056.34;;;13.79;100.00
60918;BME280;46792;38.854;-9.384;2022-12-16T04:06:43;98056.34;;;13.79;100.00
60918;BME280;46792;38.854;-9.384;2022-12-16T04:08:44;98053.00;;;13.73;100.00
60918;BME280;46792;38.854;-9.384;2022-12-16T04:10:51;98054.59;;;13.83;100.00
60918;BME280;46792;38.854;-9.384;2022-12-16T04:13:10;98051.25;;;13.86;100.00
60918;BME280;46792;38.854;-9.384;2022-12-16T04:21:23;98049.78;;;13.89;100.00
60918;BME280;46792;38.854;-9.384;2022-12-16T04:23:50;98066.69;;;13.86;100.00
60918;BME280;46792;38.854;-9.384;2022-12-16T04:26:11;98060.19;;;13.69;100.00
60918;BME280;46792;38.854;-9.384;2022-12-16T04:28:11;98065.31;;;13.71;100.00
60918;BME280;46792;38.854;-9.384;2022-12-16T04:30:17;98072.31;;;13.72;100.00
60918;BME280;46792;38.854;-9.384;2022-12-16T04:32:20;98058.44;;;13.64;100.00
60918;BME280;46792;38.854;-9.384;2022-12-16T04:34:21;98072.47;;;13.75;100.00
60918;BME280;46792;38.854;-9.384;2022-12-16T04:36:25;98077.06;;;13.75;100.00
60918;BME280;46792;38.854;-9.384;2022-12-16T04:39:01;98072.75;;;13.82;100.00
60918;BME280;46792;38.854;-9.384;2022-12-16T04:41:20;98064.97;;;13.81;100.00
60918;BME280;46792;38.854;-9.384;2022-12-16T04:43:39;98052.19;;;13.73;100.00
60918;BME280;46792;38.854;-9.384;2022-12-16T04:45:58;98070.84;;;13.92;100.00
60918;BME280;46792;38.854;-9.384;2022-12-16T04:48:20;98067.50;;;13.86;100.00
60918;BME280;46792;38.854;-9.384;2022-12-16T04:50:39;98060.31;;;13.73;100.00
60918;BME280;46792;38.854;-9.384;2022-12-16T04:52:58;98079.97;;;13.87;100.00
60918;BME280;46792;38.854;-9.384;2022-12-16T04:55:20;98082.81;;;13.82;100.00
60918;BME280;46792;38.854;-9.384;2022-12-16T04:57:39;98074.97;;;13.89;100.00
60918;BME280;46792;38.854;-9.384;2022-12-16T04:59:58;98073.22;;;13.93;100.00
60918;BME280;46792;38.854;-9.384;2022-12-16T05:02:20;98078.78;;;13.97;100.00
60918;BME280;46792;38.854;-9.384;2022-12-16T05:04:39;98078.34;;;13.86;100.00
60918;BME280;46792;38.854;-9.384;2022-12-16T05:06:58;98082.19;;;13.85;100.00
60918;BME280;46792;38.854;-9.384;2022-12-16T05:09:20;98082.19;;;13.85;100.00
60918;BME280;46792;38.854;-9.384;2022-12-16T05:11:40;98082.66;;;13.87;100.00
60918;BME280;46792;38.854;-9.384;2022-12-16T05:13:59;98084.72;;;13.90;100.00
60918;BME280;46792;38.854;-9.384;2022-12-16T05:16:21;98082.66;;;13.87;100.00
60918;BME280;46792;38.854;-9.384;2022-12-16T05:18:40;98090.00;;;13.87;100.00
60918;BME280;46792;38.854;-9.384;2022-12-16T05:21:01;98103.88;;;13.85;100.00
60918;BME280;46792;38.854;-9.384;2022-12-16T05:23:20;98088.75;;;13.75;100.00
60918;BME280;46792;38.854;-9.384;2022-12-16T05:25:39;98109.00;;;13.60;100.00
60918;BME280;46792;38.854;-9.384;2022-12-16T05:27:59;98108.69;;;13.53;100.00
60918;BME280;46792;38.854;-9.384;2022-12-16T05:32:58;98100.56;;;13.79;100.00
60918;BME280;46792;38.854;-9.384;2022-12-16T05:35:20;98102.78;;;13.77;100.00
60918;BME280;46792;38.854;-9.384;2022-12-16T05:37:39;98110.25;;;13.80;100.00
60918;BME280;46792;38.854;-9.384;2022-12-16T05:39:59;98109.63;;;13.75;100.00
60918;BME280;46792;38.854;-9.384;2022-12-16T05:42:20;98104.19;;;13.75;100.00
60918;BME280;46792;38.854;-9.384;2022-12-16T05:44:40;98115.22;;;13.69;100.00
60918;BME280;46792;38.854;-9.384;2022-12-16T05:46:59;98120.00;;;13.73;100.00
60918;BME280;46792;38.854;-9.384;2022-12-16T05:49:20;98126.69;;;13.49;100.00
60918;BME280;46792;38.854;-9.384;2022-12-16T05:51:39;98128.59;;;13.48;100.00
60918;BME280;46792;38.854;-9.384;2022-12-16T05:53:59;98143.56;;;13.37;100.00
60918;BME280;46792;38.854;-9.384;2022-12-16T05:56:20;98144.38;;;13.37;100.00
60918;BME280;46792;38.854;-9.384;2022-12-16T05:58:39;98145.84;;;13.52;100.00
60918;BME280;46792;38.854;-9.384;2022-12-16T06:00:58;98147.25;;;13.41;100.00
60918;BME280;46792;38.854;-9.384;2022-12-16T06:03:20;98151.84;;;13.23;100.00
60918;BME280;46792;38.854;-9.384;2022-12-16T06:05:59;98154.84;;;13.21;100.00
60918;BME280;46792;38.854;-9.384;2022-12-16T06:08:20;98152.50;;;13.29;100.00
60918;BME280;46792;38.854;-9.384;2022-12-16T06:10:39;98154.09;;;13.30;100.00
60918;BME280;46792;38.854;-9.384;2022-12-16T06:12:59;98158.19;;;13.27;100.00
60918;BME280;46792;38.854;-9.384;2022-12-16T06:15:37;98155.50;;;13.36;100.00
60918;BME280;46792;38.854;-9.384;2022-12-16T06:18:15;98154.94;;;13.48;100.00
60918;BME280;46792;38.854;-9.384;2022-12-16T06:20:35;98144.88;;;13.48;100.00
60918;BME280;46792;38.854;-9.384;2022-12-16T06:22:55;98151.25;;;13.44;100.00
60918;BME280;46792;38.854;-9.384;2022-12-16T06:25:14;98147.28;;;13.50;100.00
60918;BME280;46792;38.854;-9.384;2022-12-16T06:27:33;98139.41;;;13.31;100.00
60918;BME280;46792;38.854;-9.384;2022-12-16T06:29:53;98144.56;;;13.50;100.00
60918;BME280;46792;38.854;-9.384;2022-12-16T06:32:12;98143.63;;;13.63;100.00
60918;BME280;46792;38.854;-9.384;2022-12-16T06:34:31;98157.00;;;13.51;100.00
60918;BME280;46792;38.854;-9.384;2022-12-16T06:36:51;98163.81;;;13.39;100.00
60918;BME280;46792;38.854;-9.384;2022-12-16T06:39:10;98175.28;;;13.36;100.00
60918;BME280;46792;38.854;-9.384;2022-12-16T06:41:49;98180.84;;;13.31;100.00
60918;BME280;46792;38.854;-9.384;2022-12-16T06:44:08;98183.41;;;13.28;100.00
60918;BME280;46792;38.854;-9.384;2022-12-16T06:46:30;98174.16;;;13.29;100.00
60918;BME280;46792;38.854;-9.384;2022-12-16T06:48:54;98189.63;;;13.28;100.00
60918;BME280;46792;38.854;-9.384;2022-12-16T06:51:13;98191.06;;;13.26;100.00
60918;BME280;46792;38.854;-9.384;2022-12-16T06:53:32;98190.72;;;13.27;100.00
60918;BME280;46792;38.854;-9.384;2022-12-16T06:55:51;98197.22;;;13.17;100.00
60918;BME280;46792;38.854;-9.384;2022-12-16T06:58:10;98184.59;;;13.04;100.00
60918;BME280;46792;38.854;-9.384;2022-12-16T07:00:32;98204.25;;;13.18;100.00
60918;BME280;46792;38.854;-9.384;2022-12-16T07:02:52;98214.44;;;13.13;100.00
60918;BME280;46792;38.854;-9.384;2022-12-16T07:05:31;98222.91;;;13.20;100.00
60918;BME280;46792;38.854;-9.384;2022-12-16T07:07:50;98227.22;;;13.21;100.00
60918;BME280;46792;38.854;-9.384;2022-12-16T07:10:10;98231.81;;;13.12;100.00
60918;BME280;46792;38.854;-9.384;2022-12-16T07:12:29;98233.13;;;13.23;100.00
60918;BME280;46792;38.854;-9.384;2022-12-16T07:14:51;98221.47;;;13.22;100.00
60918;BME280;46792;38.854;-9.384;2022-12-16T07:17:11;98231.38;;;13.27;100.00
60918;BME280;46792;38.854;-9.384;2022-12-16T07:19:30;98238.06;;;13.21;100.00
60918;BME280;46792;38.854;-9.384;2022-12-16T07:21:52;98239.31;;;13.15;100.00
60918;BME280;46792;38.854;-9.384;2022-12-16T07:24:11;98246.19;;;13.21;100.00
60918;BME280;46792;38.854;-9.384;2022-12-16T07:26:49;98253.97;;;13.14;100.00
60918;BME280;46792;38.854;-9.384;2022-12-16T07:29:08;98240.31;;;13.28;100.00
60918;BME280;46792;38.854;-9.384;2022-12-16T07:31:27;98248.63;;;13.31;100.00
60918;BME280;46792;38.854;-9.384;2022-12-16T07:33:47;98247.66;;;13.36;100.00
60918;BME280;46792;38.854;-9.384;2022-12-16T07:36:06;98260.00;;;13.42;100.00
60918;BME280;46792;38.854;-9.384;2022-12-16T07:38:25;98259.78;;;13.30;100.00
60918;BME280;46792;38.854;-9.384;2022-12-16T07:40:46;98275.09;;;13.34;100.00
60918;BME280;46792;38.854;-9.384;2022-12-16T07:43:25;98276.34;;;13.28;100.00
60918;BME280;46792;38.854;-9.384;2022-12-16T07:45:44;98272.34;;;13.26;100.00
60918;BME280;46792;38.854;-9.384;2022-12-16T07:48:06;98276.78;;;13.21;100.00
60918;BME280;46792;38.854;-9.384;2022-12-16T07:50:26;98284.78;;;13.27;100.00
60918;BME280;46792;38.854;-9.384;2022-12-16T07:52:45;98279.66;;;13.25;100.00
60918;BME280;46792;38.854;-9.384;2022-12-16T07:55:05;98286.53;;;13.22;100.00
60918;BME280;46792;38.854;-9.384;2022-12-16T07:57:24;98284.13;;;13.21;100.00
60918;BME280;46792;38.854;-9.384;2022-12-16T07:59:44;98287.00;;;13.24;100.00
60918;BME280;46792;38.854;-9.384;2022-12-16T08:02:12;98291.31;;;13.26;100.00
60918;BME280;46792;38.854;-9.384;2022-12-16T08:04:31;98297.22;;;13.28;100.00
60918;BME280;46792;38.854;-9.384;2022-12-16T08:06:50;98296.88;;;13.20;100.00
60918;BME280;46792;38.854;-9.384;2022-12-16T08:09:10;98303.09;;;13.21;100.00
60918;BME280;46792;38.854;-9.384;2022-12-16T08:11:29;98302.50;;;13.33;100.00
60918;BME280;46792;38.854;-9.384;2022-12-16T08:13:49;98315.59;;;13.31;100.00
60918;BME280;46792;38.854;-9.384;2022-12-16T08:16:10;98340.78;;;13.08;100.00
60918;BME280;46792;38.854;-9.384;2022-12-16T08:18:29;98347.47;;;13.02;100.00
60918;BME280;46792;38.854;-9.384;2022-12-16T08:20:59;98342.50;;;12.96;100.00
60918;BME280;46792;38.854;-9.384;2022-12-16T08:23:18;98347.69;;;12.92;100.00
60918;BME280;46792;38.854;-9.384;2022-12-16T08:25:37;98344.66;;;12.85;100.00
60918;BME280;46792;38.854;-9.384;2022-12-16T08:27:56;98351.50;;;12.82;100.00
60918;BME280;46792;38.854;-9.384;2022-12-16T08:30:16;98346.84;;;12.83;100.00
60918;BME280;46792;38.854;-9.384;2022-12-16T08:32:35;98358.53;;;12.92;100.00
60918;BME280;46792;38.854;-9.384;2022-12-16T08:34:54;98359.78;;;12.86;100.00
60918;BME280;46792;38.854;-9.384;2022-12-16T08:37:15;98367.91;;;12.86;100.00
60918;BME280;46792;38.854;-9.384;2022-12-16T08:39:34;98358.97;;;12.85;100.00
60918;BME280;46792;38.854;-9.384;2022-12-16T08:41:53;98366.91;;;12.82;100.00
60918;BME280;46792;38.854;-9.384;2022-12-16T08:44:12;98371.06;;;12.79;100.00
60918;BME280;46792;38.854;-9.384;2022-12-16T08:46:31;98369.13;;;12.80;100.00
60918;BME280;46792;38.854;-9.384;2022-12-16T08:48:50;98378.69;;;12.77;100.00
60918;BME280;46792;38.854;-9.384;2022-12-16T08:51:10;98381.41;;;12.77;100.00
60918;BME280;46792;38.854;-9.384;2022-12-16T08:53:29;98381.88;;;12.79;100.00
60918;BME280;46792;38.854;-9.384;2022-12-16T08:55:48;98388.16;;;12.88;100.00
60918;BME280;46792;38.854;-9.384;2022-12-16T08:58:08;98401.28;;;12.95;100.00
60918;BME280;46792;38.854;-9.384;2022-12-16T09:00:27;98399.72;;;13.03;100.00
60918;BME280;46792;38.854;-9.384;2022-12-16T09:02:46;98403.50;;;13.16;100.00
60918;BME280;46792;38.854;-9.384;2022-12-16T09:05:06;98407.69;;;13.22;100.00
60918;BME280;46792;38.854;-9.384;2022-12-16T09:07:25;98407.34;;;13.23;100.00
60918;BME280;46792;38.854;-9.384;2022-12-16T09:09:44;98405.59;;;13.19;100.00
60918;BME280;46792;38.854;-9.384;2022-12-16T09:12:04;98406.19;;;13.16;100.00
60918;BME280;46792;38.854;-9.384;2022-12-16T09:14:23;98432.97;;;13.17;100.00
60918;BME280;46792;38.854;-9.384;2022-12-16T09:16:42;98432.78;;;13.14;100.00
60918;BME280;46792;38.854;-9.384;2022-12-16T09:19:02;98442.47;;;13.06;100.00
60918;BME280;46792;38.854;-9.384;2022-12-16T09:21:21;98446.75;;;12.84;100.00
60918;BME280;46792;38.854;-9.384;2022-12-16T09:23:57;98450.50;;;12.74;100.00
60918;BME280;46792;38.854;-9.384;2022-12-16T09:26:16;98454.25;;;12.65;100.00
60918;BME280;46792;38.854;-9.384;2022-12-16T09:28:36;98453.84;;;12.57;100.00
60918;BME280;46792;38.854;-9.384;2022-12-16T09:31:14;98467.09;;;12.59;100.00
60918;BME280;46792;38.854;-9.384;2022-12-16T09:33:33;98469.66;;;12.64;100.00
60918;BME280;46792;38.854;-9.384;2022-12-16T09:35:54;98467.72;;;12.78;100.00
60918;BME280;46792;38.854;-9.384;2022-12-16T09:38:13;98467.31;;;12.85;100.00
60918;BME280;46792;38.854;-9.384;2022-12-16T09:40:33;98465.78;;;12.93;100.00
60918;BME280;46792;38.854;-9.384;2022-12-16T09:43:12;98475.78;;;13.06;100.00
60918;BME280;46792;38.854;-9.384;2022-12-16T09:48:27;98483.09;;;13.06;100.00
60918;BME280;46792;38.854;-9.384;2022-12-16T09:50:52;98491.91;;;13.12;100.00
60918;BME280;46792;38.854;-9.384;2022-12-16T09:53:16;98492.41;;;13.14;100.00
60918;BME280;46792;38.854;-9.384;2022-12-16T09:55:41;98497.81;;;13.14;100.00
60918;BME280;46792;38.854;-9.384;2022-12-16T09:58:01;98502.88;;;13.06;100.00
60918;BME280;46792;38.854;-9.384;2022-12-16T10:00:26;98508.47;;;13.10;100.00
60918;BME280;46792;38.854;-9.384;2022-12-16T10:02:49;98507.16;;;13.07;100.00
60918;BME280;46792;38.854;-9.384;2022-12-16T10:05:14;98512.19;;;13.14;100.00
60918;BME280;46792;38.854;-9.384;2022-12-16T10:07:34;98507.81;;;13.27;100.00
60918;BME280;46792;38.854;-9.384;2022-12-16T10:13:00;98528.06;;;13.44;100.00
60918;BME280;46792;38.854;-9.384;2022-12-16T10:15:38;98525.44;;;13.38;100.00
60918;BME280;46792;38.854;-9.384;2022-12-16T10:18:03;98525.44;;;13.38;100.00
60918;BME280;46792;38.854;-9.384;2022-12-16T10:20:40;98516.22;;;13.39;100.00
60918;BME280;46792;38.854;-9.384;2022-12-16T10:25:55;98532.88;;;13.47;100.00
60918;BME280;46792;38.854;-9.384;2022-12-16T10:31:11;98536.56;;;13.51;100.00
60918;BME280;46792;38.854;-9.384;2022-12-16T10:33:30;98541.66;;;13.52;100.00
60918;BME280;46792;38.854;-9.384;2022-12-16T10:35:52;98550.97;;;13.60;100.00
60918;BME280;46792;38.854;-9.384;2022-12-16T10:38:19;98539.63;;;13.58;100.00
60918;BME280;46792;38.854;-9.384;2022-12-16T10:40:40;98544.34;;;13.66;100.00
60918;BME280;46792;38.854;-9.384;2022-12-16T10:43:10;98545.13;;;13.67;100.00
60918;BME280;46792;38.854;-9.384;2022-12-16T10:45:35;98544.34;;;13.66;100.00
60918;BME280;46792;38.854;-9.384;2022-12-16T10:47:55;98553.25;;;13.67;100.00
60918;BME280;46792;38.854;-9.384;2022-12-16T10:50:14;98562.06;;;13.73;100.00
60918;BME280;46792;38.854;-9.384;2022-12-16T10:52:33;98552.75;;;13.88;100.00
60918;BME280;46792;38.854;-9.384;2022-12-16T10:55:06;98560.41;;;13.86;100.00
60918;BME280;46792;38.854;-9.384;2022-12-16T11:00:37;98565.53;;;13.87;100.00
60918;BME280;46792;38.854;-9.384;2022-12-16T11:03:19;98551.16;;;13.87;100.00
60918;BME280;46792;38.854;-9.384;2022-12-16T11:05:39;98549.91;;;13.93;100.00
60918;BME280;46792;38.854;-9.384;2022-12-16T11:07:58;98551.06;;;14.01;100.00
60918;BME280;46792;38.854;-9.384;2022-12-16T11:12:44;98553.69;;;14.14;100.00
60918;BME280;46792;38.854;-9.384;2022-12-16T11:15:30;98562.03;;;14.18;100.00
60918;BME280;46792;38.854;-9.384;2022-12-16T11:18:04;98562.84;;;14.27;100.00
60918;BME280;46792;38.854;-9.384;2022-12-16T11:20:24;98556.75;;;14.22;97.79
60918;BME280;46792;38.854;-9.384;2022-12-16T11:22:43;98566.69;;;14.26;97.53
60918;BME280;46792;38.854;-9.384;2022-12-16T11:25:13;98560.66;;;14.38;99.56
60918;BME280;46792;38.854;-9.384;2022-12-16T11:27:32;98570.16;;;14.58;100.00
60918;BME280;46792;38.854;-9.384;2022-12-16T11:29:56;98570.81;;;14.64;100.00
60918;BME280;46792;38.854;-9.384;2022-12-16T11:32:19;98575.13;;;14.65;100.00
60918;BME280;46792;38.854;-9.384;2022-12-16T11:34:42;98582.84;;;14.72;99.29
60918;BME280;46792;38.854;-9.384;2022-12-16T11:37:02;98572.50;;;14.83;98.16
60918;BME280;46792;38.854;-9.384;2022-12-16T11:39:24;98574.88;;;14.75;97.78
60918;BME280;46792;38.854;-9.384;2022-12-16T11:41:48;98580.25;;;14.67;97.73
60918;BME280;46792;38.854;-9.384;2022-12-16T11:44:16;98578.97;;;14.64;98.27
60918;BME280;46792;38.854;-9.384;2022-12-16T11:46:42;98574.34;;;14.65;98.32
60918;BME280;46792;38.854;-9.384;2022-12-16T11:49:05;98584.38;;;14.64;98.99
60918;BME280;46792;38.854;-9.384;2022-12-16T11:51:31;98579.84;;;14.82;99.34
60918;BME280;46792;38.854;-9.384;2022-12-16T11:53:57;98580.78;;;14.78;99.11
60918;BME280;46792;38.854;-9.384;2022-12-16T11:56:23;98575.38;;;14.86;98.96
60918;BME280;46792;38.854;-9.384;2022-12-16T11:58:53;98578.25;;;14.81;98.10
60918;BME280;46792;38.854;-9.384;2022-12-16T12:01:29;98578.88;;;14.78;97.08
60918;BME280;46792;38.854;-9.384;2022-12-16T12:03:53;98581.75;;;14.82;97.51
60918;BME280;46792;38.854;-9.384;2022-12-16T12:08:49;98581.47;;;14.83;96.55
60918;BME280;46792;38.854;-9.384;2022-12-16T12:19:49;98591.88;;;14.58;97.84
60918;BME280;46792;38.854;-9.384;2022-12-16T12:22:17;98588.22;;;14.63;97.41
60918;BME280;46792;38.854;-9.384;2022-12-16T12:27:56;98592.03;;;14.94;98.98
60918;BME280;46792;38.854;-9.384;2022-12-16T12:30:20;98583.09;;;15.19;98.56
60918;BME280;46792;38.854;-9.384;2022-12-16T12:37:50;98591.72;;;15.04;96.77
60918;BME280;46792;38.854;-9.384;2022-12-16T12:42:49;98590.63;;;15.31;99.25
60918;BME280;46792;38.854;-9.384;2022-12-16T12:50:40;98592.88;;;15.38;92.42
60918;BME280;46792;38.854;-9.384;2022-12-16T12:58:09;98603.13;;;15.68;90.36
60918;BME280;46792;38.854;-9.384;2022-12-16T13:00:34;98602.00;;;15.77;90.83
60918;BME280;46792;38.854;-9.384;2022-12-16T13:05:36;98600.41;;;15.94;91.45
60918;BME280;46792;38.854;-9.384;2022-12-16T13:11:10;98601.91;;;16.21;88.71
60918;BME280;46792;38.854;-9.384;2022-12-16T13:13:32;98612.19;;;16.16;90.22
60918;BME280;46792;38.854;-9.384;2022-12-16T13:15:53;98598.38;;;16.38;90.64
60918;BME280;46792;38.854;-9.384;2022-12-16T13:18:21;98593.03;;;16.51;90.90
60918;BME280;46792;38.854;-9.384;2022-12-16T13:20:40;98593.28;;;16.67;87.47
60918;BME280;46792;38.854;-9.384;2022-12-16T13:23:29;98607.19;;;16.35;86.19
60918;BME280;46792;38.854;-9.384;2022-12-16T13:25:52;98598.44;;;16.03;87.90